CDT,Max TemperatureF,Mean TemperatureF,Min TemperatureF,Max Dew PointF,MeanDew PointF,Min DewpointF,Max Humidity, Mean Humidity, Min Humidity, Max Sea Level PressureIn, Mean Sea Level PressureIn, Min Sea Level PressureIn, Max VisibilityMiles, Mean VisibilityMiles, Min VisibilityMiles, Max Wind SpeedMPH, Mean Wind SpeedMPH, Max Gust SpeedMPH,PrecipitationIn, CloudCover, Events, WindDirDegrees
2012-10-1,71,58,46,51,37,25,77,46,19,30.17,30.09,29.99,,,,17,12,25,0.01,,,335
2012-10-2,84,62,39,35,32,30,79,39,14,30.03,29.83,29.68,,,,25,9,32,0.00,,,177
2012-10-3,80,61,43,40,35,30,76,46,23,30.12,29.76,29.61,,,,30,12,47,0.00,,,132
2012-10-4,51,44,37,34,29,24,76,58,38,30.39,30.30,30.15,,,,23,18,36,0.00,,,318
2012-10-5,51,39,28,28,22,17,81,55,29,30.40,30.37,30.32,,,,18,9,29,0.00,,,324
2012-10-6,46,34,21,28,20,17,82,59,34,30.47,30.40,30.31,,,,13,7,17,0.00,,,323
2012-10-7,62,42,23,26,22,14,81,51,18,30.30,30.06,29.87,,,,17,7,26,0.00,,,232
2012-10-8,69,55,41,45,34,25,80,49,28,29.85,29.78,29.73,,,,22,11,32,0.00,,,270
2012-10-9,53,44,32,44,26,19,83,48,32,30.16,30.01,29.83,,,,24,13,37,0.00,,,309
2012-10-10,71,48,25,33,25,17,78,47,19,30.18,30.03,29.85,,,,18,8,24,0.00,,,221
2012-10-11,55,43,33,36,29,23,73,57,41,30.43,30.21,29.85,,,,21,11,30,0.00,,,19
2012-10-12,61,44,27,36,24,13,78,52,18,30.43,30.15,29.84,,,,31,13,39,0.00,,,159
2012-10-13,71,54,39,38,36,32,79,49,29,29.83,29.71,29.66,,,,15,9,,0.00,,,343
2012-10-14,73,59,45,38,35,33,68,47,26,29.98,29.94,29.86,,,,13,9,,0.00,,,346
2012-10-15,84,60,39,36,32,27,76,41,13,29.94,29.78,29.58,,,,17,6,25,0.00,,,185
2012-10-16,77,64,54,44,40,31,62,41,25,29.64,29.47,29.20,,,,15,10,23,0.00,,,266
2012-10-17,62,54,46,50,29,15,80,45,18,29.57,29.45,29.20,,,,40,26,59,0.02,,,306
2012-10-18,50,48,46,36,31,24,68,53,36,29.80,29.63,29.52,,,,44,36,67,0.00,,,317
2012-10-19,55,47,39,35,33,31,77,60,43,29.88,29.83,29.77,,,,26,19,43,0.00,,,340
2012-10-20,75,54,34,35,31,26,92,54,18,29.77,29.64,29.55,,,,16,10,23,0.00,,,134
2012-10-21,69,56,44,45,38,30,79,60,37,29.98,29.77,29.52,,,,20,13,25,0.00,,,7
2012-10-22,53,46,39,43,40,36,93,80,71,30.01,29.92,29.80,,,,13,8,,0.00,,,32
2012-10-23,68,58,48,50,46,41,83,73,52,29.88,29.72,29.61,,,,16,7,20,0.00,,,186
2012-10-24,53,42,33,41,34,28,92,73,46,30.06,29.96,29.89,,,,20,10,25,0.19,,,351
2012-10-25,35,34,32,31,27,25,92,77,70,30.40,30.21,30.03,,,,24,15,32,0.15,,,319
2012-10-26,36,31,27,26,23,20,78,68,54,30.51,30.45,30.38,,,,18,12,21,0.00,,,278
2012-10-27,43,32,23,33,27,19,92,80,65,30.36,30.25,30.17,,,,16,9,23,0.00,,,154
2012-10-28,52,40,30,36,32,28,96,77,52,30.24,30.15,30.04,,,,20,7,,0.00,,,122
2012-10-29,63,48,35,35,33,29,79,57,36,30.07,30.03,30.01,,,,16,9,,0.00,,,137
2012-10-30,63,52,41,35,34,31,76,57,36,30.06,30.02,29.99,,,,15,10,20,0.00,,,133
2012-10-31,66,49,32,40,35,28,85,63,38,30.05,30.00,29.95,,,,16,5,,0.00,,,125